Falken — SBCH — position and weather

sailwx.info

Track history (hours):
 
Tides and Currents Weather Stations Pressure Air Temp Water Temp Dewpoint Dewpoint Depression Visibility Wind Speed Wind Dir Waves Ship Positions

Falken (Sweden)

Last reported at 2014-Jul-24 01:33 UTC. Time now 2014-Jul-24 01:58 UTC.
Position N 56°09' E 015°35'.

Length 40 m; draft 4.2 m.

Type: Sailing vessel. MMSI: 265070000.

Date/timePositionNaut miles runAvg speedWind from/ knotsBaromVisibWave heightAir tempDewpointWater temp
2014-Jul-24 01:33N 56°09' E 015°35'0 0.0
2014-Jul-24 00:33N 56°09' E 015°35'0 0.0
2014-Jul-23 23:33N 56°09' E 015°35'0 0.0
2014-Jul-23 22:33N 56°09' E 015°35'0 0.0
2014-Jul-23 21:33N 56°09' E 015°35'0 0.0
2014-Jul-23 20:33N 56°09' E 015°35'0 0.0
2014-Jul-23 19:33N 56°09' E 015°35'0 0.0
2014-Jul-23 18:33N 56°09' E 015°35'0 0.0
2014-Jul-23 17:33N 56°09' E 015°35'0 0.0
2014-Jul-23 16:33N 56°09' E 015°35'0 0.0
2014-Jul-23 15:33N 56°09' E 015°35'0 0.0
2014-Jul-23 14:33N 56°09' E 015°35'1 0.9
2014-Jul-23 13:33N 56°09' E 015°37'8 7.7
2014-Jul-23 12:34N 56°02' E 015°32'7 7.2
2014-Jul-23 11:34N 55°57' E 015°22'8 7.3
2014-Jul-23 10:32N 55°53' E 015°11'7 7.6
2014-Jul-23 09:33N 55°47' E 015°02'7 6.9
2014-Jul-23 08:34N 55°44' E 014°51'7 7.2
2014-Jul-23 07:34N 55°42' E 014°39'6 4.8
2014-Jul-23 06:23N 55°37' E 014°36'5 5.5
2014-Jul-23 05:34N 55°32' E 014°36'5 4.6
2014-Jul-23 04:29N 55°28' E 014°30'5 5.1
2014-Jul-23 03:30N 55°25' E 014°24'5 5.1
2014-Jul-23 02:33N 55°22' E 014°18'6 6.3
2014-Jul-23 01:34N 55°21' E 014°07'7 6.8
2014-Jul-23 00:34N 55°20' E 013°55'7 6.8
2014-Jul-22 23:34N 55°19' E 013°43'6 6.2
2014-Jul-22 22:33N 55°17' E 013°32'7 6.5
2014-Jul-22 21:33N 55°17' E 013°21'7 7.1
2014-Jul-22 20:34N 55°16' E 013°08'7 7.2
2014-Jul-22 19:34N 55°16' E 012°56'7 6.7
2014-Jul-22 18:34N 55°17' E 012°44'5 5.2
2014-Jul-22 17:34N 55°21' E 012°39'5 5.3
2014-Jul-22 16:34N 55°26' E 012°40'6 6.4
2014-Jul-22 15:33N 55°32' E 012°46'6 6.2
2014-Jul-22 14:34N 55°37' E 012°53'6 5.6
2014-Jul-22 13:33N 55°42' E 012°54'7 7.0
2014-Jul-22 12:34N 55°48' E 012°47'7 7.1
2014-Jul-22 11:33N 55°55' E 012°44'7 6.8
2014-Jul-22 10:34N 56°02' E 012°40'1 1.3
2014-Jul-22 09:33N 56°03' E 012°41'0 0.0
2014-Jul-22 08:34N 56°03' E 012°41'5 4.5
2014-Jul-22 07:34N 56°05' E 012°35'5 4.6
2014-Jul-22 06:33N 56°09' E 012°30'6 6.4
2014-Jul-22 05:34N 56°15' E 012°26'7 7.2
2014-Jul-22 04:34N 56°22' E 012°23'8 7.9
2014-Jul-22 03:34N 56°30' E 012°20'8 7.9
2014-Jul-22 02:33N 56°37' E 012°16'8 7.8
2014-Jul-22 01:32N 56°45' E 012°12'7 7.6
2014-Jul-22 00:33N 56°52' E 012°08'7 7.2
2014-Jul-21 23:32N 56°59' E 012°03'7 7.2
2014-Jul-21 22:33N 57°05' E 011°58'7 7.0
2014-Jul-21 21:34N 57°12' E 011°54'7 7.3
2014-Jul-21 20:33N 57°18' E 011°48'2 7.5
2014-Jul-21 20:18N 57°20' E 011°46'6 7.9
2014-Jul-21 19:33N 57°26' E 011°43'8 7.9
2014-Jul-21 18:33N 57°33' E 011°38'7 6.9
2014-Jul-21 17:33N 57°40' E 011°41'2 2.4
2014-Jul-21 16:33N 57°42' E 011°40'0 0.0
2014-Jul-21 15:33N 57°42' E 011°40'0 0.0
2014-Jul-21 14:33N 57°42' E 011°40'0 0.0
2014-Jul-21 13:33N 57°42' E 011°40'0 0.0
2014-Jul-21 12:33N 57°42' E 011°40'0 0.0
2014-Jul-21 11:32N 57°42' E 011°40'0 0.0
2014-Jul-21 10:32N 57°42' E 011°40'0 0.0
2014-Jul-21 09:32N 57°42' E 011°40'0 0.0
2014-Jul-21 08:32N 57°42' E 011°40'0 0.0
2014-Jul-21 07:32N 57°42' E 011°40'0 0.0
2014-Jul-21 06:32N 57°42' E 011°40'0 0.0
2014-Jul-21 05:32N 57°42' E 011°40'0 0.0
2014-Jul-21 04:32N 57°42' E 011°40'0 0.0
2014-Jul-21 03:32N 57°42' E 011°40'0 0.0
2014-Jul-21 02:32N 57°42' E 011°40'0 0.0
2014-Jul-21 01:32N 57°42' E 011°40'0 0.0
2014-Jul-21 00:32N 57°42' E 011°40'0 0.0
2014-Jul-20 23:32N 57°42' E 011°40'0 0.0
2014-Jul-20 22:32N 57°42' E 011°40'0 0.0
2014-Jul-20 21:32N 57°42' E 011°40'0 0.0
2014-Jul-20 20:32N 57°42' E 011°40'0 0.0
2014-Jul-20 19:32N 57°42' E 011°40'0 0.0
2014-Jul-20 18:32N 57°42' E 011°40'0 0.0
2014-Jul-20 17:32N 57°42' E 011°40'0 0.0
2014-Jul-20 16:32N 57°42' E 011°40'0 0.0
2014-Jul-20 15:32N 57°42' E 011°40'0 0.0
2014-Jul-20 14:32N 57°42' E 011°40'0 0.0
2014-Jul-20 13:32N 57°42' E 011°40'0 0.0
2014-Jul-20 12:32N 57°42' E 011°40'0 0.0
2014-Jul-20 11:32N 57°42' E 011°40'0 0.0
2014-Jul-20 10:32N 57°42' E 011°40'0 0.0
2014-Jul-20 09:32N 57°42' E 011°40'0 0.0
2014-Jul-20 08:32N 57°42' E 011°40'0 0.0
2014-Jul-20 07:32N 57°42' E 011°40'0 0.0
2014-Jul-20 06:32N 57°42' E 011°40'0 0.0
2014-Jul-20 05:32N 57°42' E 011°40'0 0.0
2014-Jul-20 04:32N 57°42' E 011°40'0 0.0
2014-Jul-20 03:32N 57°42' E 011°40'0 0.0
2014-Jul-20 02:32N 57°42' E 011°40'0 0.0
2014-Jul-20 01:32N 57°42' E 011°40'0 0.0
2014-Jul-20 00:29N 57°42' E 011°40'0 0.0
2014-Jul-19 23:32N 57°42' E 011°40'0 0.0
2014-Jul-19 22:32N 57°42' E 011°40'0 0.0
2014-Jul-19 21:32N 57°42' E 011°40'0 0.0
2014-Jul-19 20:32N 57°42' E 011°40'0 0.0
2014-Jul-19 19:32N 57°42' E 011°40'0 0.0
2014-Jul-19 18:32N 57°42' E 011°40'0 0.0
2014-Jul-19 17:29N 57°42' E 011°40'0 0.0
2014-Jul-19 16:32N 57°42' E 011°40'0 0.0
2014-Jul-19 15:32N 57°42' E 011°40'0 0.0
2014-Jul-19 14:32N 57°42' E 011°40'0 0.0
2014-Jul-19 13:32N 57°42' E 011°40'0 0.0
2014-Jul-19 12:32N 57°42' E 011°40'0 0.0
2014-Jul-19 11:32N 57°42' E 011°40'0 0.0
2014-Jul-19 10:32N 57°42' E 011°40'0 0.0
2014-Jul-19 09:32N 57°42' E 011°40'0 0.0
2014-Jul-19 08:32N 57°42' E 011°40'0 0.0
2014-Jul-19 07:32N 57°42' E 011°40'0 0.0
2014-Jul-19 06:32N 57°42' E 011°40'0 0.0
2014-Jul-19 05:32N 57°42' E 011°40'0 0.0
2014-Jul-19 04:32N 57°42' E 011°40'0 0.0
2014-Jul-19 03:32N 57°42' E 011°40'0 0.0
2014-Jul-19 02:32N 57°42' E 011°40'0 0.0
2014-Jul-19 01:32N 57°42' E 011°40'0 0.0
2014-Jul-19 00:32N 57°42' E 011°40'0 0.0
2014-Jul-18 23:29N 57°42' E 011°40'0 0.0
2014-Jul-18 22:32N 57°42' E 011°40'0 0.0
2014-Jul-18 21:29N 57°42' E 011°40'0 0.0
2014-Jul-18 20:32N 57°42' E 011°40'0 0.0
2014-Jul-18 19:32N 57°42' E 011°40'0 0.0
2014-Jul-18 18:32N 57°42' E 011°40'0 0.0
2014-Jul-18 17:32N 57°42' E 011°40'0 0.0
2014-Jul-18 16:32N 57°42' E 011°40'0 0.0
2014-Jul-18 15:32N 57°42' E 011°40'0 0.0
2014-Jul-18 14:32N 57°42' E 011°40'0 0.0
2014-Jul-18 13:32N 57°42' E 011°40'0 0.0
2014-Jul-18 12:32N 57°42' E 011°40'0 0.0
2014-Jul-18 11:32N 57°42' E 011°40'0 0.0
2014-Jul-18 10:32N 57°42' E 011°40'0 0.0
2014-Jul-18 09:32N 57°42' E 011°40'0 0.0
2014-Jul-18 08:32N 57°42' E 011°40'0 0.0
2014-Jul-18 07:32N 57°42' E 011°40'0 0.0
2014-Jul-18 06:32N 57°42' E 011°40'0 0.0
2014-Jul-18 05:24N 57°42' E 011°40'0 0.0
2014-Jul-18 04:33N 57°42' E 011°40'0 0.0
2014-Jul-18 03:33N 57°42' E 011°40'0 0.0
2014-Jul-18 02:33N 57°42' E 011°40'0 0.0
2014-Jul-18 01:33N 57°42' E 011°40'0 0.0
2014-Jul-18 00:33N 57°42' E 011°40'0 0.0
2014-Jul-17 23:33N 57°42' E 011°40'0 0.0
2014-Jul-17 22:33N 57°42' E 011°40'0 0.0
2014-Jul-17 21:33N 57°42' E 011°40'0 0.0
2014-Jul-17 20:33N 57°42' E 011°40'0 0.0
2014-Jul-17 19:33N 57°42' E 011°40'0 0.0
2014-Jul-17 18:33N 57°42' E 011°40'0 0.0
2014-Jul-17 17:33N 57°42' E 011°40'0 0.0
2014-Jul-17 16:33N 57°42' E 011°40'0 0.0
2014-Jul-17 15:33N 57°42' E 011°40'0 0.0
2014-Jul-17 14:33N 57°42' E 011°40'0 0.0
2014-Jul-17 13:33N 57°42' E 011°40'0 0.0
2014-Jul-17 12:33N 57°42' E 011°40'0 0.0
2014-Jul-17 11:33N 57°42' E 011°40'0 0.0
2014-Jul-17 10:33N 57°42' E 011°40'0 0.0
2014-Jul-17 09:33N 57°42' E 011°40'0 0.0
2014-Jul-17 08:33N 57°42' E 011°40'0 0.0
2014-Jul-17 07:33N 57°42' E 011°40'0 0.0
2014-Jul-17 06:33N 57°42' E 011°40'0 0.0
2014-Jul-17 05:33N 57°42' E 011°40'0 0.0
2014-Jul-17 04:33N 57°42' E 011°40'0 0.0
2014-Jul-17 03:33N 57°42' E 011°40'0 0.0
2014-Jul-17 02:33N 57°42' E 011°40'0 0.0
2014-Jul-17 01:33N 57°42' E 011°40'0 0.0
2014-Jul-17 00:33N 57°42' E 011°40'0 0.0
2014-Jul-16 23:33N 57°42' E 011°40'0 0.0
2014-Jul-16 22:33N 57°42' E 011°40'0 0.0
2014-Jul-16 21:33N 57°42' E 011°40'0 0.0
2014-Jul-16 20:33N 57°42' E 011°40'0 0.0
2014-Jul-16 19:33N 57°42' E 011°40'0 0.0
2014-Jul-16 18:33N 57°42' E 011°40'0 0.0
2014-Jul-16 17:33N 57°42' E 011°40'0 0.0
2014-Jul-16 16:33N 57°42' E 011°40'0 0.0
2014-Jul-16 15:33N 57°42' E 011°40'0 0.0
2014-Jul-16 14:33N 57°42' E 011°40'0 0.0
2014-Jul-16 13:33N 57°42' E 011°40'0 0.0
2014-Jul-16 12:33N 57°42' E 011°40'0 0.0
2014-Jul-16 11:33N 57°42' E 011°40'0 0.0
2014-Jul-16 10:33N 57°42' E 011°40'0 0.0
2014-Jul-16 09:33N 57°42' E 011°40'0 0.0
2014-Jul-16 08:33N 57°42' E 011°40'0 0.0
2014-Jul-16 07:33N 57°42' E 011°40'0 0.0
2014-Jul-16 06:33N 57°42' E 011°40'0 0.0
2014-Jul-16 05:33N 57°42' E 011°40'0 0.0
2014-Jul-16 04:33N 57°42' E 011°40'0 0.0
2014-Jul-16 03:33N 57°42' E 011°40'0 0.0
2014-Jul-16 02:33N 57°42' E 011°40'0 0.0
2014-Jul-16 01:33N 57°42' E 011°40'0 0.0
2014-Jul-16 00:33N 57°42' E 011°40'0 0.0
2014-Jul-15 23:33N 57°42' E 011°40'0 0.0
2014-Jul-15 22:33N 57°42' E 011°40'0 0.0
2014-Jul-15 21:33N 57°42' E 011°40'0 0.0
2014-Jul-15 20:33N 57°42' E 011°40'0 0.0
2014-Jul-15 19:33N 57°42' E 011°40'0 0.0
2014-Jul-15 18:33N 57°42' E 011°40'0 0.0
2014-Jul-15 17:33N 57°42' E 011°40'0 0.0
2014-Jul-15 16:30N 57°42' E 011°40'0 0.0
2014-Jul-15 15:33N 57°42' E 011°40'0 0.0
2014-Jul-15 14:33N 57°42' E 011°40'0 0.0
2014-Jul-15 13:31N 57°42' E 011°40'0 0.0
2014-Jul-15 12:25N 57°42' E 011°40'0 0.0
2014-Jul-15 11:31N 57°42' E 011°40'0 0.0
2014-Jul-15 10:31N 57°42' E 011°40'0 0.0
2014-Jul-15 09:31N 57°42' E 011°40'0 0.0
2014-Jul-15 08:31N 57°42' E 011°40'0 0.0
2014-Jul-15 07:31N 57°42' E 011°40'0 0.0
2014-Jul-15 06:31N 57°42' E 011°40'0 0.0
2014-Jul-15 05:31N 57°42' E 011°40'0 0.0
2014-Jul-15 04:31N 57°42' E 011°40'0 0.0
2014-Jul-15 03:31N 57°42' E 011°40'0 0.0
2014-Jul-15 02:31N 57°42' E 011°40'0 0.0
2014-Jul-15 01:31N 57°42' E 011°40'0 0.0
2014-Jul-15 00:31N 57°42' E 011°40'0 0.0
2014-Jul-14 23:31N 57°42' E 011°40'0 0.0
2014-Jul-14 22:31N 57°42' E 011°40'0 0.0
2014-Jul-14 21:31N 57°42' E 011°40'0 0.0
2014-Jul-14 20:31N 57°42' E 011°40'0 0.0
2014-Jul-14 19:31N 57°42' E 011°40'0 0.0
2014-Jul-14 18:31N 57°42' E 011°40'0 0.0
2014-Jul-14 17:31N 57°42' E 011°40'0 0.0
2014-Jul-14 16:31N 57°42' E 011°40'0 0.0
2014-Jul-14 15:31N 57°42' E 011°40'0 0.0
2014-Jul-14 14:28N 57°42' E 011°40'0 0.0
2014-Jul-14 13:31N 57°42' E 011°40'0 0.0
2014-Jul-14 12:31N 57°42' E 011°40'0 0.0
2014-Jul-14 11:31N 57°42' E 011°40'0 0.0
2014-Jul-14 10:31N 57°42' E 011°40'0 0.0
2014-Jul-14 09:31N 57°42' E 011°40'0 0.0
2014-Jul-14 08:31N 57°42' E 011°40'0 0.0
2014-Jul-14 07:31N 57°42' E 011°40'0 0.0
2014-Jul-14 06:28N 57°42' E 011°40'0 0.0
2014-Jul-14 05:31N 57°42' E 011°40'0 0.0
2014-Jul-14 04:31N 57°42' E 011°40'0 0.0
2014-Jul-14 03:28N 57°42' E 011°40'0 0.0
2014-Jul-14 02:31N 57°42' E 011°40'  
Track history (hours):
 
Tides and Currents Weather Stations Pressure Air Temp Water Temp Dewpoint Dewpoint Depression Visibility Wind Speed Wind Dir Waves Ship Positions

Falken (Sweden)

Last reported at 2014-Jul-24 01:33 UTC. Time now 2014-Jul-24 01:58 UTC.
Position N 56°09' E 015°35'.

Length 40 m; draft 4.2 m.

Type: Sailing vessel. MMSI: 265070000.

Date/timePositionNaut miles runAvg speedWind from/ knotsBaromVisibWave heightAir tempDewpointWater temp
2014-Jul-24 01:33N 56°09' E 015°35'0 0.0
2014-Jul-24 00:33N 56°09' E 015°35'0 0.0
2014-Jul-23 23:33N 56°09' E 015°35'0 0.0
2014-Jul-23 22:33N 56°09' E 015°35'0 0.0
2014-Jul-23 21:33N 56°09' E 015°35'0 0.0
2014-Jul-23 20:33N 56°09' E 015°35'0 0.0
2014-Jul-23 19:33N 56°09' E 015°35'0 0.0
2014-Jul-23 18:33N 56°09' E 015°35'0 0.0
2014-Jul-23 17:33N 56°09' E 015°35'0 0.0
2014-Jul-23 16:33N 56°09' E 015°35'0 0.0
2014-Jul-23 15:33N 56°09' E 015°35'0 0.0
2014-Jul-23 14:33N 56°09' E 015°35'1 0.9
2014-Jul-23 13:33N 56°09' E 015°37'8 7.7
2014-Jul-23 12:34N 56°02' E 015°32'7 7.2
2014-Jul-23 11:34N 55°57' E 015°22'8 7.3
2014-Jul-23 10:32N 55°53' E 015°11'7 7.6
2014-Jul-23 09:33N 55°47' E 015°02'7 6.9
2014-Jul-23 08:34N 55°44' E 014°51'7 7.2
2014-Jul-23 07:34N 55°42' E 014°39'6 4.8
2014-Jul-23 06:23N 55°37' E 014°36'5 5.5
2014-Jul-23 05:34N 55°32' E 014°36'5 4.6
2014-Jul-23 04:29N 55°28' E 014°30'5 5.1
2014-Jul-23 03:30N 55°25' E 014°24'5 5.1
2014-Jul-23 02:33N 55°22' E 014°18'6 6.3
2014-Jul-23 01:34N 55°21' E 014°07'7 6.8
2014-Jul-23 00:34N 55°20' E 013°55'7 6.8
2014-Jul-22 23:34N 55°19' E 013°43'6 6.2
2014-Jul-22 22:33N 55°17' E 013°32'7 6.5
2014-Jul-22 21:33N 55°17' E 013°21'7 7.1
2014-Jul-22 20:34N 55°16' E 013°08'7 7.2
2014-Jul-22 19:34N 55°16' E 012°56'7 6.7
2014-Jul-22 18:34N 55°17' E 012°44'5 5.2
2014-Jul-22 17:34N 55°21' E 012°39'5 5.3
2014-Jul-22 16:34N 55°26' E 012°40'6 6.4
2014-Jul-22 15:33N 55°32' E 012°46'6 6.2
2014-Jul-22 14:34N 55°37' E 012°53'6 5.6
2014-Jul-22 13:33N 55°42' E 012°54'7 7.0
2014-Jul-22 12:34N 55°48' E 012°47'7 7.1
2014-Jul-22 11:33N 55°55' E 012°44'7 6.8
2014-Jul-22 10:34N 56°02' E 012°40'1 1.3
2014-Jul-22 09:33N 56°03' E 012°41'0 0.0
2014-Jul-22 08:34N 56°03' E 012°41'5 4.5
2014-Jul-22 07:34N 56°05' E 012°35'5 4.6
2014-Jul-22 06:33N 56°09' E 012°30'6 6.4
2014-Jul-22 05:34N 56°15' E 012°26'7 7.2
2014-Jul-22 04:34N 56°22' E 012°23'8 7.9
2014-Jul-22 03:34N 56°30' E 012°20'8 7.9
2014-Jul-22 02:33N 56°37' E 012°16'8 7.8
2014-Jul-22 01:32N 56°45' E 012°12'7 7.6
2014-Jul-22 00:33N 56°52' E 012°08'7 7.2
2014-Jul-21 23:32N 56°59' E 012°03'7 7.2
2014-Jul-21 22:33N 57°05' E 011°58'7 7.0
2014-Jul-21 21:34N 57°12' E 011°54'7 7.3
2014-Jul-21 20:33N 57°18' E 011°48'2 7.5
2014-Jul-21 20:18N 57°20' E 011°46'6 7.9
2014-Jul-21 19:33N 57°26' E 011°43'8 7.9
2014-Jul-21 18:33N 57°33' E 011°38'7 6.9
2014-Jul-21 17:33N 57°40' E 011°41'2 2.4
2014-Jul-21 16:33N 57°42' E 011°40'0 0.0
2014-Jul-21 15:33N 57°42' E 011°40'0 0.0
2014-Jul-21 14:33N 57°42' E 011°40'0 0.0
2014-Jul-21 13:33N 57°42' E 011°40'0 0.0
2014-Jul-21 12:33N 57°42' E 011°40'0 0.0
2014-Jul-21 11:32N 57°42' E 011°40'0 0.0
2014-Jul-21 10:32N 57°42' E 011°40'0 0.0
2014-Jul-21 09:32N 57°42' E 011°40'0 0.0
2014-Jul-21 08:32N 57°42' E 011°40'0 0.0
2014-Jul-21 07:32N 57°42' E 011°40'0 0.0
2014-Jul-21 06:32N 57°42' E 011°40'0 0.0
2014-Jul-21 05:32N 57°42' E 011°40'0 0.0
2014-Jul-21 04:32N 57°42' E 011°40'0 0.0
2014-Jul-21 03:32N 57°42' E 011°40'0 0.0
2014-Jul-21 02:32N 57°42' E 011°40'0 0.0
2014-Jul-21 01:32N 57°42' E 011°40'0 0.0
2014-Jul-21 00:32N 57°42' E 011°40'0 0.0
2014-Jul-20 23:32N 57°42' E 011°40'0 0.0
2014-Jul-20 22:32N 57°42' E 011°40'0 0.0
2014-Jul-20 21:32N 57°42' E 011°40'0 0.0
2014-Jul-20 20:32N 57°42' E 011°40'0 0.0
2014-Jul-20 19:32N 57°42' E 011°40'0 0.0
2014-Jul-20 18:32N 57°42' E 011°40'0 0.0
2014-Jul-20 17:32N 57°42' E 011°40'0 0.0
2014-Jul-20 16:32N 57°42' E 011°40'0 0.0
2014-Jul-20 15:32N 57°42' E 011°40'0 0.0
2014-Jul-20 14:32N 57°42' E 011°40'0 0.0
2014-Jul-20 13:32N 57°42' E 011°40'0 0.0
2014-Jul-20 12:32N 57°42' E 011°40'0 0.0
2014-Jul-20 11:32N 57°42' E 011°40'0 0.0
2014-Jul-20 10:32N 57°42' E 011°40'0 0.0
2014-Jul-20 09:32N 57°42' E 011°40'0 0.0
2014-Jul-20 08:32N 57°42' E 011°40'0 0.0
2014-Jul-20 07:32N 57°42' E 011°40'0 0.0
2014-Jul-20 06:32N 57°42' E 011°40'0 0.0
2014-Jul-20 05:32N 57°42' E 011°40'0 0.0
2014-Jul-20 04:32N 57°42' E 011°40'0 0.0
2014-Jul-20 03:32N 57°42' E 011°40'0 0.0
2014-Jul-20 02:32N 57°42' E 011°40'0 0.0
2014-Jul-20 01:32N 57°42' E 011°40'0 0.0
2014-Jul-20 00:29N 57°42' E 011°40'0 0.0
2014-Jul-19 23:32N 57°42' E 011°40'0 0.0
2014-Jul-19 22:32N 57°42' E 011°40'0 0.0
2014-Jul-19 21:32N 57°42' E 011°40'0 0.0
2014-Jul-19 20:32N 57°42' E 011°40'0 0.0
2014-Jul-19 19:32N 57°42' E 011°40'0 0.0
2014-Jul-19 18:32N 57°42' E 011°40'0 0.0
2014-Jul-19 17:29N 57°42' E 011°40'0 0.0
2014-Jul-19 16:32N 57°42' E 011°40'0 0.0
2014-Jul-19 15:32N 57°42' E 011°40'0 0.0
2014-Jul-19 14:32N 57°42' E 011°40'0 0.0
2014-Jul-19 13:32N 57°42' E 011°40'0 0.0
2014-Jul-19 12:32N 57°42' E 011°40'0 0.0
2014-Jul-19 11:32N 57°42' E 011°40'0 0.0
2014-Jul-19 10:32N 57°42' E 011°40'0 0.0
2014-Jul-19 09:32N 57°42' E 011°40'0 0.0
2014-Jul-19 08:32N 57°42' E 011°40'0 0.0
2014-Jul-19 07:32N 57°42' E 011°40'0 0.0
2014-Jul-19 06:32N 57°42' E 011°40'0 0.0
2014-Jul-19 05:32N 57°42' E 011°40'0 0.0
2014-Jul-19 04:32N 57°42' E 011°40'0 0.0
2014-Jul-19 03:32N 57°42' E 011°40'0 0.0
2014-Jul-19 02:32N 57°42' E 011°40'0 0.0
2014-Jul-19 01:32N 57°42' E 011°40'0 0.0
2014-Jul-19 00:32N 57°42' E 011°40'0 0.0
2014-Jul-18 23:29N 57°42' E 011°40'0 0.0
2014-Jul-18 22:32N 57°42' E 011°40'0 0.0
2014-Jul-18 21:29N 57°42' E 011°40'0 0.0
2014-Jul-18 20:32N 57°42' E 011°40'0 0.0
2014-Jul-18 19:32N 57°42' E 011°40'0 0.0
2014-Jul-18 18:32N 57°42' E 011°40'0 0.0
2014-Jul-18 17:32N 57°42' E 011°40'0 0.0
2014-Jul-18 16:32N 57°42' E 011°40'0 0.0
2014-Jul-18 15:32N 57°42' E 011°40'0 0.0
2014-Jul-18 14:32N 57°42' E 011°40'0 0.0
2014-Jul-18 13:32N 57°42' E 011°40'0 0.0
2014-Jul-18 12:32N 57°42' E 011°40'0 0.0
2014-Jul-18 11:32N 57°42' E 011°40'0 0.0
2014-Jul-18 10:32N 57°42' E 011°40'0 0.0
2014-Jul-18 09:32N 57°42' E 011°40'0 0.0
2014-Jul-18 08:32N 57°42' E 011°40'0 0.0
2014-Jul-18 07:32N 57°42' E 011°40'0 0.0
2014-Jul-18 06:32N 57°42' E 011°40'0 0.0
2014-Jul-18 05:24N 57°42' E 011°40'0 0.0
2014-Jul-18 04:33N 57°42' E 011°40'0 0.0
2014-Jul-18 03:33N 57°42' E 011°40'0 0.0
2014-Jul-18 02:33N 57°42' E 011°40'0 0.0
2014-Jul-18 01:33N 57°42' E 011°40'0 0.0
2014-Jul-18 00:33N 57°42' E 011°40'0 0.0
2014-Jul-17 23:33N 57°42' E 011°40'0 0.0
2014-Jul-17 22:33N 57°42' E 011°40'0 0.0
2014-Jul-17 21:33N 57°42' E 011°40'0 0.0
2014-Jul-17 20:33N 57°42' E 011°40'0 0.0
2014-Jul-17 19:33N 57°42' E 011°40'0 0.0
2014-Jul-17 18:33N 57°42' E 011°40'0 0.0
2014-Jul-17 17:33N 57°42' E 011°40'0 0.0
2014-Jul-17 16:33N 57°42' E 011°40'0 0.0
2014-Jul-17 15:33N 57°42' E 011°40'0 0.0
2014-Jul-17 14:33N 57°42' E 011°40'0 0.0
2014-Jul-17 13:33N 57°42' E 011°40'0 0.0
2014-Jul-17 12:33N 57°42' E 011°40'0 0.0
2014-Jul-17 11:33N 57°42' E 011°40'0 0.0
2014-Jul-17 10:33N 57°42' E 011°40'0 0.0
2014-Jul-17 09:33N 57°42' E 011°40'0 0.0
2014-Jul-17 08:33N 57°42' E 011°40'0 0.0
2014-Jul-17 07:33N 57°42' E 011°40'0 0.0
2014-Jul-17 06:33N 57°42' E 011°40'0 0.0
2014-Jul-17 05:33N 57°42' E 011°40'0 0.0
2014-Jul-17 04:33N 57°42' E 011°40'0 0.0
2014-Jul-17 03:33N 57°42' E 011°40'0 0.0
2014-Jul-17 02:33N 57°42' E 011°40'0 0.0
2014-Jul-17 01:33N 57°42' E 011°40'0 0.0
2014-Jul-17 00:33N 57°42' E 011°40'0 0.0
2014-Jul-16 23:33N 57°42' E 011°40'0 0.0
2014-Jul-16 22:33N 57°42' E 011°40'0 0.0
2014-Jul-16 21:33N 57°42' E 011°40'0 0.0
2014-Jul-16 20:33N 57°42' E 011°40'0 0.0
2014-Jul-16 19:33N 57°42' E 011°40'0 0.0
2014-Jul-16 18:33N 57°42' E 011°40'0 0.0
2014-Jul-16 17:33N 57°42' E 011°40'0 0.0
2014-Jul-16 16:33N 57°42' E 011°40'0 0.0
2014-Jul-16 15:33N 57°42' E 011°40'0 0.0
2014-Jul-16 14:33N 57°42' E 011°40'0 0.0
2014-Jul-16 13:33N 57°42' E 011°40'0 0.0
2014-Jul-16 12:33N 57°42' E 011°40'0 0.0
2014-Jul-16 11:33N 57°42' E 011°40'0 0.0
2014-Jul-16 10:33N 57°42' E 011°40'0 0.0
2014-Jul-16 09:33N 57°42' E 011°40'0 0.0
2014-Jul-16 08:33N 57°42' E 011°40'0 0.0
2014-Jul-16 07:33N 57°42' E 011°40'0 0.0
2014-Jul-16 06:33N 57°42' E 011°40'0 0.0
2014-Jul-16 05:33N 57°42' E 011°40'0 0.0
2014-Jul-16 04:33N 57°42' E 011°40'0 0.0
2014-Jul-16 03:33N 57°42' E 011°40'0 0.0
2014-Jul-16 02:33N 57°42' E 011°40'0 0.0
2014-Jul-16 01:33N 57°42' E 011°40'0 0.0
2014-Jul-16 00:33N 57°42' E 011°40'0 0.0
2014-Jul-15 23:33N 57°42' E 011°40'0 0.0
2014-Jul-15 22:33N 57°42' E 011°40'0 0.0
2014-Jul-15 21:33N 57°42' E 011°40'0 0.0
2014-Jul-15 20:33N 57°42' E 011°40'0 0.0
2014-Jul-15 19:33N 57°42' E 011°40'0 0.0
2014-Jul-15 18:33N 57°42' E 011°40'0 0.0
2014-Jul-15 17:33N 57°42' E 011°40'0 0.0
2014-Jul-15 16:30N 57°42' E 011°40'0 0.0
2014-Jul-15 15:33N 57°42' E 011°40'0 0.0
2014-Jul-15 14:33N 57°42' E 011°40'0 0.0
2014-Jul-15 13:31N 57°42' E 011°40'0 0.0
2014-Jul-15 12:25N 57°42' E 011°40'0 0.0
2014-Jul-15 11:31N 57°42' E 011°40'0 0.0
2014-Jul-15 10:31N 57°42' E 011°40'0 0.0
2014-Jul-15 09:31N 57°42' E 011°40'0 0.0
2014-Jul-15 08:31N 57°42' E 011°40'0 0.0
2014-Jul-15 07:31N 57°42' E 011°40'0 0.0
2014-Jul-15 06:31N 57°42' E 011°40'0 0.0
2014-Jul-15 05:31N 57°42' E 011°40'0 0.0
2014-Jul-15 04:31N 57°42' E 011°40'0 0.0
2014-Jul-15 03:31N 57°42' E 011°40'0 0.0
2014-Jul-15 02:31N 57°42' E 011°40'0 0.0
2014-Jul-15 01:31N 57°42' E 011°40'0 0.0
2014-Jul-15 00:31N 57°42' E 011°40'0 0.0
2014-Jul-14 23:31N 57°42' E 011°40'0 0.0
2014-Jul-14 22:31N 57°42' E 011°40'0 0.0
2014-Jul-14 21:31N 57°42' E 011°40'0 0.0
2014-Jul-14 20:31N 57°42' E 011°40'0 0.0
2014-Jul-14 19:31N 57°42' E 011°40'0 0.0
2014-Jul-14 18:31N 57°42' E 011°40'0 0.0
2014-Jul-14 17:31N 57°42' E 011°40'0 0.0
2014-Jul-14 16:31N 57°42' E 011°40'0 0.0
2014-Jul-14 15:31N 57°42' E 011°40'0 0.0
2014-Jul-14 14:28N 57°42' E 011°40'0 0.0
2014-Jul-14 13:31N 57°42' E 011°40'0 0.0
2014-Jul-14 12:31N 57°42' E 011°40'0 0.0
2014-Jul-14 11:31N 57°42' E 011°40'0 0.0
2014-Jul-14 10:31N 57°42' E 011°40'0 0.0
2014-Jul-14 09:31N 57°42' E 011°40'0 0.0
2014-Jul-14 08:31N 57°42' E 011°40'0 0.0
2014-Jul-14 07:31N 57°42' E 011°40'0 0.0
2014-Jul-14 06:28N 57°42' E 011°40'0 0.0
2014-Jul-14 05:31N 57°42' E 011°40'0 0.0
2014-Jul-14 04:31N 57°42' E 011°40'0 0.0
2014-Jul-14 03:28N 57°42' E 011°40'0 0.0
2014-Jul-14 02:31N 57°42' E 011°40'  

Dump ship's entire track history